Time;durP1;ratioP1;P1;durP2;ratioP2;P2;SDS_P1;SDS_P2;PMS_P1;PMS_P2;Temp;Humidity;BMP_temperature;BMP_pressure;BME280_temperature;BME280_humidity;BME280_pressure;Samples;Min_cycle;Max_cycle;Signal;HPM_P1;HPM_P2
2022/02/27 00:01:39;;;;;;;5.00;1.83;;;19.70;51.50;;;;;;4990864;28;20213;-55
2022/02/27 00:04:11;;;;;;;4.57;2.30;;;19.80;51.60;;;;;;4991115;28;20197;-55
2022/02/27 00:06:42;;;;;;;6.65;1.92;;;19.70;51.60;;;;;;4991298;28;20222;-57
2022/02/27 00:09:12;;;;;;;3.58;1.58;;;19.80;51.70;;;;;;4987513;28;20201;-50
2022/02/27 00:11:43;;;;;;;4.90;1.70;;;19.80;51.80;;;;;;4990459;28;20816;-51
2022/02/27 00:14:14;;;;;;;3.13;1.75;;;19.80;51.90;;;;;;4990387;28;20201;-57
2022/02/27 00:16:44;;;;;;;3.03;1.42;;;19.80;52.00;;;;;;4990313;28;20197;-57
2022/02/27 00:19:17;;;;;;;5.15;1.67;;;19.80;52.00;;;;;;4991533;28;20866;-49
2022/02/27 00:21:47;;;;;;;2.53;1.50;;;19.80;52.10;;;;;;4988608;28;20296;-50
2022/02/27 00:24:18;;;;;;;4.60;1.70;;;19.90;52.10;;;;;;4991125;28;20206;-52
2022/02/27 00:26:49;;;;;;;2.53;1.52;;;19.90;52.20;;;;;;4990062;28;20275;-59
2022/02/27 00:29:19;;;;;;;2.70;1.40;;;20.00;52.40;;;;;;4990158;28;20295;-57
2022/02/27 00:31:50;;;;;;;2.88;1.38;;;20.00;52.40;;;;;;4989458;28;20292;-57
2022/02/27 00:34:22;;;;;;;2.88;1.50;;;20.00;52.40;;;;;;4989825;28;20244;-54
2022/02/27 00:36:53;;;;;;;3.30;1.58;;;20.00;52.50;;;;;;4989507;28;20213;-56
2022/02/27 00:39:26;;;;;;;3.63;1.50;;;20.00;52.60;;;;;;4989908;28;20196;-57
2022/02/27 00:41:57;;;;;;;2.70;1.40;;;20.00;52.60;;;;;;4990732;28;20249;-56
2022/02/27 00:44:27;;;;;;;3.00;1.58;;;20.10;52.50;;;;;;4990464;28;20189;-56
2022/02/27 00:46:58;;;;;;;4.55;1.63;;;20.10;52.50;;;;;;4984693;28;20225;-55
2022/02/27 00:49:31;;;;;;;4.35;1.85;;;20.10;52.50;;;;;;4989380;28;20594;-54
2022/02/27 00:52:01;;;;;;;4.45;2.10;;;20.10;52.60;;;;;;4990151;28;20736;-56
2022/02/27 00:54:32;;;;;;;3.72;1.60;;;20.20;52.60;;;;;;4989945;28;20264;-51
2022/02/27 00:57:03;;;;;;;3.72;1.65;;;20.20;52.60;;;;;;4990498;28;20664;-51
2022/02/27 00:59:33;;;;;;;3.20;1.60;;;20.20;52.50;;;;;;4984915;28;20193;-58
2022/02/27 01:02:04;;;;;;;3.35;1.58;;;20.20;52.50;;;;;;4989211;28;20580;-58
2022/02/27 01:04:37;;;;;;;3.25;1.30;;;20.30;52.50;;;;;;4990253;28;20209;-60
2022/02/27 01:07:08;;;;;;;3.45;1.67;;;20.30;52.40;;;;;;4989317;28;20221;-54
2022/02/27 01:09:38;;;;;;;3.05;1.58;;;20.30;52.30;;;;;;5033132;23;20232;-55
2022/02/27 01:12:10;;;;;;;3.20;1.30;;;20.30;52.40;;;;;;4972525;28;20214;-53
2022/02/27 01:14:40;;;;;;;2.97;1.60;;;20.40;52.30;;;;;;4971440;28;20249;-53
2022/02/27 01:17:11;;;;;;;4.03;1.50;;;20.40;52.40;;;;;;4979271;28;20189;-57
2022/02/27 01:19:43;;;;;;;2.88;1.50;;;20.50;52.50;;;;;;4989249;28;20251;-52
2022/02/27 01:22:14;;;;;;;2.95;1.38;;;20.50;52.50;;;;;;4986411;28;20217;-52
2022/02/27 01:24:45;;;;;;;2.33;1.30;;;20.50;52.50;;;;;;4990122;28;20193;-53
2022/02/27 01:27:15;;;;;;;3.30;1.48;;;20.50;52.50;;;;;;4988601;28;20589;-56
2022/02/27 01:29:46;;;;;;;4.22;1.42;;;20.60;52.50;;;;;;4991657;28;20205;-51
2022/02/27 01:32:17;;;;;;;2.78;1.55;;;20.60;52.50;;;;;;4989108;28;20280;-57
2022/02/27 01:34:49;;;;;;;5.18;1.70;;;20.60;52.50;;;;;;4989381;28;20779;-57
2022/02/27 01:37:20;;;;;;;3.10;1.52;;;20.60;52.50;;;;;;4989512;28;20281;-57
2022/02/27 01:39:54;;;;;;;2.70;1.20;;;20.60;52.50;;;;;;4989721;28;20201;-54
2022/02/27 01:42:24;;;;;;;2.85;1.52;;;20.70;52.50;;;;;;4988724;28;20292;-57
2022/02/27 01:44:55;;;;;;;2.65;1.30;;;20.70;52.50;;;;;;4989175;28;20202;-53
2022/02/27 01:47:25;;;;;;;2.88;1.30;;;20.70;52.50;;;;;;4989523;28;20233;-51
2022/02/27 01:49:58;;;;;;;3.00;1.35;;;20.70;52.40;;;;;;4988795;28;20254;-55
2022/02/27 01:52:29;;;;;;;1.88;1.40;;;20.80;52.40;;;;;;4989078;28;20225;-55
2022/02/27 01:55:00;;;;;;;3.35;1.35;;;20.80;52.30;;;;;;4989152;28;20200;-53
2022/02/27 01:57:31;;;;;;;2.55;1.27;;;20.80;52.30;;;;;;4989006;28;20193;-56
2022/02/27 02:00:01;;;;;;;2.70;1.45;;;20.80;52.20;;;;;;4988862;28;20240;-55
2022/02/27 02:02:32;;;;;;;2.25;1.30;;;20.90;52.20;;;;;;4988797;28;21463;-57
2022/02/27 02:05:05;;;;;;;3.08;1.40;;;20.90;52.20;;;;;;4989165;28;20205;-56
2022/02/27 02:07:36;;;;;;;2.78;1.40;;;20.90;52.10;;;;;;4989284;28;20752;-54
2022/02/27 02:10:09;;;;;;;4.30;1.60;;;21.00;52.10;;;;;;4989259;28;20205;-56
2022/02/27 02:12:40;;;;;;;2.67;1.50;;;21.00;52.10;;;;;;4988029;28;20201;-50
2022/02/27 02:15:11;;;;;;;2.03;1.30;;;21.00;52.10;;;;;;4988477;28;20194;-54
2022/02/27 02:17:42;;;;;;;3.10;1.52;;;21.00;52.10;;;;;;4988906;28;20915;-56
2022/02/27 02:20:18;;;;;;;2.80;1.35;;;21.00;52.10;;;;;;4988912;28;20208;-57
2022/02/27 02:22:49;;;;;;;2.88;1.40;;;21.00;52.00;;;;;;4988856;28;20263;-56
2022/02/27 02:25:19;;;;;;;2.92;1.60;;;21.00;52.00;;;;;;4988610;28;20197;-56
2022/02/27 02:27:50;;;;;;;3.40;1.38;;;21.00;52.00;;;;;;4989071;28;20279;-55
2022/02/27 02:30:21;;;;;;;3.22;1.70;;;21.00;52.00;;;;;;4989402;28;20194;-56
2022/02/27 02:32:54;;;;;;;3.15;1.38;;;21.00;52.00;;;;;;4989417;28;20190;-57
2022/02/27 02:35:28;;;;;;;4.75;1.65;;;21.00;51.90;;;;;;4988716;28;20645;-50
2022/02/27 02:37:59;;;;;;;2.30;1.50;;;21.10;51.80;;;;;;4987915;28;20206;-52
2022/02/27 02:40:30;;;;;;;3.45;1.70;;;21.10;51.80;;;;;;4987842;28;20225;-50
2022/02/27 02:43:01;;;;;;;2.55;1.42;;;21.10;51.80;;;;;;4988386;28;20206;-57
2022/02/27 02:45:32;;;;;;;2.05;1.30;;;21.10;51.80;;;;;;4987689;28;20201;-55
2022/02/27 02:48:02;;;;;;;1.95;1.33;;;21.10;51.80;;;;;;4988728;28;20268;-57
2022/02/27 02:50:35;;;;;;;5.13;1.67;;;21.10;51.80;;;;;;4988354;28;20210;-56
2022/02/27 02:53:05;;;;;;;3.63;1.73;;;21.10;51.80;;;;;;4988710;28;20189;-56
2022/02/27 02:55:36;;;;;;;3.35;1.88;;;21.10;51.70;;;;;;4988405;28;20198;-57
2022/02/27 02:58:07;;;;;;;2.90;1.58;;;21.10;51.60;;;;;;4988849;28;20193;-57
2022/02/27 03:00:37;;;;;;;4.35;1.85;;;21.10;51.60;;;;;;4990852;28;20268;-58
2022/02/27 03:03:08;;;;;;;2.67;1.50;;;21.10;51.50;;;;;;4992415;28;20190;-54
2022/02/27 03:05:40;;;;;;;3.25;1.67;;;21.10;51.50;;;;;;4992765;28;20201;-55
2022/02/27 03:08:11;;;;;;;4.88;1.67;;;21.10;51.50;;;;;;4991510;28;20244;-57
2022/02/27 03:10:42;;;;;;;2.90;1.40;;;21.10;51.40;;;;;;4992103;28;20233;-53
2022/02/27 03:13:12;;;;;;;4.97;1.80;;;21.10;51.40;;;;;;4992372;28;20197;-56
2022/02/27 03:15:43;;;;;;;5.97;1.95;;;21.10;51.30;;;;;;4991787;28;20198;-57
2022/02/27 03:18:14;;;;;;;3.60;1.83;;;21.10;51.20;;;;;;4990950;28;20209;-51
2022/02/27 03:20:46;;;;;;;2.75;1.33;;;21.10;51.20;;;;;;4991542;28;20377;-55
2022/02/27 03:23:17;;;;;;;2.95;1.50;;;21.10;51.20;;;;;;4991391;28;20206;-54
2022/02/27 03:25:47;;;;;;;2.97;1.48;;;21.10;51.20;;;;;;4991577;28;20681;-56
2022/02/27 03:28:18;;;;;;;2.70;1.40;;;21.10;51.30;;;;;;4991998;28;20197;-56
2022/02/27 03:30:49;;;;;;;3.78;1.52;;;21.20;51.30;;;;;;4990991;28;20697;-57
2022/02/27 03:33:19;;;;;;;2.72;1.40;;;21.10;51.20;;;;;;4991126;28;20201;-51
2022/02/27 03:35:52;;;;;;;3.00;1.70;;;21.10;51.20;;;;;;4991465;28;20198;-56
2022/02/27 03:38:22;;;;;;;2.25;1.50;;;21.10;51.20;;;;;;4991831;28;20609;-57
2022/02/27 03:40:54;;;;;;;2.80;1.52;;;21.10;51.10;;;;;;4991594;28;20213;-56
2022/02/27 03:43:24;;;;;;;3.97;1.73;;;21.20;51.20;;;;;;4991833;28;20280;-51
2022/02/27 03:45:55;;;;;;;3.42;1.85;;;21.10;51.20;;;;;;4990586;28;20264;-55
2022/02/27 03:48:25;;;;;;;2.88;1.70;;;21.20;51.20;;;;;;4990668;28;20209;-55
2022/02/27 03:50:58;;;;;;;4.25;1.60;;;21.20;51.20;;;;;;4991280;28;20225;-51
2022/02/27 03:53:29;;;;;;;4.13;1.58;;;21.20;51.20;;;;;;4991305;28;20202;-55
2022/02/27 03:55:59;;;;;;;4.15;1.73;;;21.20;51.20;;;;;;4990981;28;20205;-56
2022/02/27 03:58:30;;;;;;;4.72;1.95;;;21.20;51.20;;;;;;4991274;28;20202;-53
2022/02/27 04:01:00;;;;;;;3.08;1.58;;;21.20;51.00;;;;;;4990811;28;20315;-57
2022/02/27 04:03:31;;;;;;;3.83;1.90;;;21.20;51.00;;;;;;4991046;28;20198;-55
2022/02/27 04:06:03;;;;;;;2.92;1.40;;;21.20;51.00;;;;;;4990940;28;20205;-53
2022/02/27 04:08:34;;;;;;;3.92;1.65;;;21.20;50.90;;;;;;4990469;28;20190;-57
2022/02/27 04:11:05;;;;;;;3.28;1.80;;;21.20;50.90;;;;;;4989053;28;20217;-54
2022/02/27 04:13:35;;;;;;;4.35;1.80;;;21.20;51.00;;;;;;4991474;28;20264;-57
2022/02/27 04:16:07;;;;;;;3.15;1.70;;;21.20;50.90;;;;;;4990510;28;20677;-57
2022/02/27 04:18:38;;;;;;;3.17;1.65;;;21.20;51.00;;;;;;4989848;28;20260;-57
2022/02/27 04:21:10;;;;;;;2.58;1.70;;;21.20;51.00;;;;;;4990350;28;20229;-55
2022/02/27 04:23:41;;;;;;;3.20;1.85;;;21.20;51.00;;;;;;4990849;28;20190;-54
2022/02/27 04:26:11;;;;;;;3.15;1.67;;;21.20;50.90;;;;;;4989926;28;20246;-58
2022/02/27 04:28:42;;;;;;;2.97;1.60;;;21.20;50.90;;;;;;4990898;28;20198;-54
2022/02/27 04:31:13;;;;;;;3.33;1.70;;;21.20;50.90;;;;;;4990311;28;20222;-54
2022/02/27 04:33:44;;;;;;;2.58;1.40;;;21.30;50.90;;;;;;4989967;28;20254;-52
2022/02/27 04:36:16;;;;;;;3.58;1.90;;;21.20;50.90;;;;;;4990224;28;20198;-56
2022/02/27 04:38:47;;;;;;;2.83;1.55;;;21.20;50.90;;;;;;4990152;28;20567;-57
2022/02/27 04:41:18;;;;;;;4.68;2.03;;;21.20;51.00;;;;;;4990020;28;20622;-52
2022/02/27 04:43:49;;;;;;;2.53;1.52;;;21.20;50.90;;;;;;4990096;28;20200;-52
2022/02/27 04:46:20;;;;;;;6.07;2.00;;;21.20;50.90;;;;;;4990121;28;20251;-53
2022/02/27 04:48:50;;;;;;;3.38;1.75;;;21.20;50.80;;;;;;4990034;28;20206;-54
2022/02/27 04:51:23;;;;;;;3.75;1.70;;;21.20;50.70;;;;;;4990196;28;20216;-55
2022/02/27 04:53:54;;;;;;;2.88;1.55;;;21.20;50.70;;;;;;4990150;28;20293;-57
2022/02/27 04:56:24;;;;;;;4.78;2.28;;;21.20;50.70;;;;;;4990594;28;20205;-55
2022/02/27 04:58:55;;;;;;;2.47;1.50;;;21.20;50.60;;;;;;4989758;28;20204;-57
2022/02/27 05:01:26;;;;;;;3.40;1.90;;;21.20;50.60;;;;;;4990099;28;20742;-53
2022/02/27 05:03:56;;;;;;;3.75;1.65;;;21.20;50.60;;;;;;4990098;28;20357;-57
2022/02/27 05:06:29;;;;;;;4.10;1.75;;;21.30;50.70;;;;;;4989901;28;20605;-56
2022/02/27 05:08:59;;;;;;;2.15;1.55;;;21.20;50.70;;;;;;4990220;28;20349;-57
2022/02/27 05:11:36;;;;;;;3.20;1.70;;;21.20;50.70;;;;;;4989198;28;20217;-56
2022/02/27 05:14:07;;;;;;;6.70;2.10;;;21.30;50.70;;;;;;4990000;28;20267;-58
2022/02/27 05:16:38;;;;;;;3.13;1.77;;;21.20;50.70;;;;;;4989444;28;20193;-57
2022/02/27 05:19:08;;;;;;;3.95;2.22;;;21.20;50.70;;;;;;4989061;28;20248;-58
2022/02/27 05:21:41;;;;;;;3.88;1.80;;;21.30;50.70;;;;;;4989288;28;20288;-55
2022/02/27 05:24:12;;;;;;;3.42;1.65;;;21.30;50.70;;;;;;4989378;28;20201;-53
2022/02/27 05:26:42;;;;;;;2.42;1.60;;;21.30;50.70;;;;;;4989830;28;20551;-58
2022/02/27 05:29:13;;;;;;;3.08;1.52;;;21.30;50.70;;;;;;4990319;28;20193;-58
2022/02/27 05:31:43;;;;;;;2.83;2.00;;;21.30;50.70;;;;;;4989356;28;20210;-57
2022/02/27 05:34:14;;;;;;;2.28;1.30;;;21.30;50.70;;;;;;4989284;28;20198;-54
2022/02/27 05:36:46;;;;;;;2.90;1.60;;;21.30;50.70;;;;;;4990660;28;20197;-57
2022/02/27 05:39:17;;;;;;;2.58;1.40;;;21.30;50.70;;;;;;4990219;28;20244;-55
2022/02/27 05:41:48;;;;;;;4.70;2.20;;;21.30;50.60;;;;;;4989367;28;20217;-57
2022/02/27 05:44:18;;;;;;;3.53;1.95;;;21.30;50.60;;;;;;4988399;28;20194;-57
2022/02/27 05:46:49;;;;;;;3.47;1.85;;;21.30;50.60;;;;;;4989529;28;20206;-53
2022/02/27 05:49:20;;;;;;;4.65;2.03;;;21.20;50.50;;;;;;4989151;28;20205;-52
2022/02/27 05:51:52;;;;;;;3.72;2.13;;;21.20;50.50;;;;;;4989320;28;20291;-54
2022/02/27 05:54:23;;;;;;;3.88;1.92;;;21.20;50.40;;;;;;4989099;28;20198;-55
2022/02/27 05:56:54;;;;;;;3.00;1.85;;;21.20;50.50;;;;;;4988958;28;20252;-56
2022/02/27 05:59:25;;;;;;;3.60;1.80;;;21.20;50.50;;;;;;4989574;28;20240;-53
2022/02/27 06:01:55;;;;;;;4.05;1.88;;;21.20;50.50;;;;;;4989275;28;20214;-55
2022/02/27 06:04:26;;;;;;;5.18;1.92;;;21.20;50.50;;;;;;4989063;28;20346;-54
2022/02/27 06:06:59;;;;;;;3.85;1.90;;;21.30;50.50;;;;;;4988957;28;20204;-55
2022/02/27 06:09:30;;;;;;;4.63;2.08;;;21.20;50.50;;;;;;4989322;28;20233;-51
2022/02/27 06:12:01;;;;;;;3.47;1.83;;;21.20;50.50;;;;;;4988450;28;20280;-54
2022/02/27 06:14:38;;;;;;;3.08;1.90;;;21.20;50.50;;;;;;4988625;28;20654;-48
2022/02/27 06:17:09;;;;;;;5.32;1.98;;;21.20;50.50;;;;;;4988081;28;20215;-53
2022/02/27 06:19:40;;;;;;;4.25;1.80;;;21.20;50.50;;;;;;4988622;28;20244;-55
2022/02/27 06:22:12;;;;;;;4.40;1.83;;;21.20;50.50;;;;;;4989151;28;20217;-56
2022/02/27 06:24:43;;;;;;;4.80;2.17;;;21.20;50.50;;;;;;4988471;28;20193;-55
2022/02/27 06:27:14;;;;;;;4.40;2.15;;;21.20;50.50;;;;;;4988798;28;20216;-56
2022/02/27 06:29:45;;;;;;;2.80;1.50;;;21.30;50.60;;;;;;4988569;28;20247;-57
2022/02/27 06:32:15;;;;;;;3.10;1.58;;;21.20;50.50;;;;;;4988726;28;20272;-53
2022/02/27 06:34:46;;;;;;;2.22;1.58;;;21.20;50.60;;;;;;4990712;28;20244;-56
2022/02/27 06:37:18;;;;;;;3.50;1.90;;;21.20;50.60;;;;;;4993184;28;20202;-57
2022/02/27 06:39:49;;;;;;;3.00;1.63;;;21.20;50.60;;;;;;4992737;28;20194;-56
2022/02/27 06:42:19;;;;;;;2.08;1.52;;;21.20;50.60;;;;;;4992328;28;20217;-54
2022/02/27 06:44:50;;;;;;;2.83;1.50;;;21.20;50.60;;;;;;4991550;28;20241;-53
2022/02/27 06:47:21;;;;;;;4.90;2.08;;;21.20;51.20;;;;;;4993094;28;20220;-57
2022/02/27 06:49:51;;;;;;;5.15;2.08;;;21.20;50.60;;;;;;4994127;28;20268;-57
2022/02/27 06:52:24;;;;;;;3.03;1.90;;;21.20;50.50;;;;;;4993880;28;20245;-57
2022/02/27 06:54:55;;;;;;;3.47;1.73;;;21.20;50.50;;;;;;4992987;28;20673;-57
2022/02/27 06:57:25;;;;;;;5.28;2.00;;;21.20;50.50;;;;;;4992503;28;20208;-53
2022/02/27 06:59:56;;;;;;;3.28;1.80;;;21.20;50.50;;;;;;4992912;28;20727;-50
2022/02/27 07:02:27;;;;;;;2.60;1.75;;;21.20;50.50;;;;;;4993547;28;20225;-54
2022/02/27 07:04:57;;;;;;;3.97;2.00;;;21.20;50.50;;;;;;4993048;28;20202;-55
2022/02/27 07:07:30;;;;;;;4.25;1.83;;;21.20;50.50;;;;;;4993688;28;20776;-57
2022/02/27 07:10:02;;;;;;;3.17;1.73;;;21.20;50.50;;;;;;4993587;28;20217;-56
2022/02/27 07:12:33;;;;;;;4.00;1.92;;;21.20;50.50;;;;;;4993505;28;20256;-56
2022/02/27 07:15:04;;;;;;;2.75;1.75;;;21.10;50.40;;;;;;4994037;28;20289;-56
2022/02/27 07:17:35;;;;;;;3.88;1.67;;;21.10;50.40;;;;;;4993253;28;20202;-54
2022/02/27 07:20:06;;;;;;;4.10;1.83;;;21.10;50.50;;;;;;4992749;28;20194;-54
2022/02/27 07:22:41;;;;;;;3.50;1.85;;;21.10;50.50;;;;;;4993419;28;20288;-50
2022/02/27 07:25:12;;;;;;;3.20;1.70;;;21.10;50.50;;;;;;4993502;28;20243;-55
2022/02/27 07:27:43;;;;;;;2.38;1.60;;;21.10;50.50;;;;;;4993207;28;20275;-57
2022/02/27 07:30:14;;;;;;;3.17;2.00;;;21.10;50.60;;;;;;4995421;28;20599;-49
2022/02/27 07:32:45;;;;;;;2.40;1.48;;;21.10;50.50;;;;;;4993604;28;20201;-52
2022/02/27 07:35:16;;;;;;;4.57;1.80;;;21.10;50.50;;;;;;4991415;28;20198;-55
2022/02/27 07:37:48;;;;;;;3.85;1.95;;;21.10;50.50;;;;;;4992734;28;20201;-56
2022/02/27 07:40:19;;;;;;;2.72;1.75;;;21.10;50.50;;;;;;4992588;28;20194;-56
2022/02/27 07:42:49;;;;;;;3.20;1.88;;;21.10;50.50;;;;;;4993013;28;20190;-50
2022/02/27 07:45:20;;;;;;;2.53;1.80;;;21.00;50.50;;;;;;4992615;28;20256;-52
2022/02/27 07:47:51;;;;;;;3.70;1.67;;;21.00;50.50;;;;;;4993065;28;20225;-57
2022/02/27 07:50:21;;;;;;;3.65;1.80;;;21.00;50.50;;;;;;4992622;28;20201;-56
2022/02/27 07:52:54;;;;;;;2.53;1.70;;;21.00;50.50;;;;;;4992582;28;20264;-55
2022/02/27 07:55:24;;;;;;;2.90;1.48;;;21.00;50.50;;;;;;4992288;28;20256;-56
2022/02/27 07:57:55;;;;;;;3.60;1.77;;;21.00;50.50;;;;;;4992274;28;20885;-51
2022/02/27 08:00:26;;;;;;;2.70;1.73;;;21.00;50.50;;;;;;4992383;28;20265;-55
2022/02/27 08:02:56;;;;;;;3.03;1.95;;;21.00;50.50;;;;;;4992748;28;20201;-56
2022/02/27 08:05:27;;;;;;;2.35;1.42;;;20.90;50.50;;;;;;4991950;28;20259;-56
2022/02/27 08:07:59;;;;;;;2.88;1.80;;;20.90;50.50;;;;;;4992217;28;20283;-52
2022/02/27 08:10:30;;;;;;;3.00;1.60;;;20.90;50.50;;;;;;4991959;28;20272;-54
2022/02/27 08:13:00;;;;;;;3.17;1.88;;;20.90;50.50;;;;;;4993056;28;20658;-57
2022/02/27 08:15:31;;;;;;;2.65;1.77;;;20.90;50.50;;;;;;4992792;28;20280;-55
2022/02/27 08:18:02;;;;;;;3.83;1.70;;;20.90;50.60;;;;;;4992152;28;20197;-54
2022/02/27 08:20:33;;;;;;;4.15;2.03;;;20.90;50.60;;;;;;4991984;28;20904;-53
2022/02/27 08:23:07;;;;;;;2.95;1.88;;;20.80;50.60;;;;;;4992428;28;20205;-53
2022/02/27 08:25:37;;;;;;;2.88;2.13;;;20.80;50.50;;;;;;4992552;28;20201;-54
2022/02/27 08:28:08;;;;;;;3.42;2.00;;;20.80;50.60;;;;;;4992085;28;20276;-54
2022/02/27 08:30:38;;;;;;;5.65;1.90;;;20.80;50.60;;;;;;4991765;28;20273;-53
2022/02/27 08:33:09;;;;;;;3.40;2.00;;;20.70;50.60;;;;;;4992221;28;20272;-53
2022/02/27 08:35:40;;;;;;;2.47;1.88;;;20.70;50.60;;;;;;4992077;28;20201;-54
2022/02/27 08:38:12;;;;;;;3.40;2.00;;;20.70;50.60;;;;;;4992267;28;20228;-52
2022/02/27 08:40:43;;;;;;;2.50;1.73;;;20.70;50.60;;;;;;4992243;28;20209;-55
2022/02/27 08:43:14;;;;;;;4.07;2.40;;;20.70;50.70;;;;;;4991761;28;20213;-50
2022/02/27 08:45:44;;;;;;;2.47;1.77;;;20.70;50.60;;;;;;4991567;28;20197;-50
2022/02/27 08:48:15;;;;;;;3.97;2.15;;;20.70;50.60;;;;;;4991502;28;20229;-55
2022/02/27 08:50:47;;;;;;;3.47;2.00;;;20.60;50.60;;;;;;4991190;28;20261;-52
2022/02/27 08:53:19;;;;;;;3.60;2.30;;;20.60;50.60;;;;;;4991263;28;20200;-51
2022/02/27 08:55:50;;;;;;;5.47;3.15;;;20.60;50.60;;;;;;4991824;28;20312;-50
2022/02/27 08:58:20;;;;;;;8.45;3.25;;;20.60;50.90;;;;;;4985558;28;20680;-52
2022/02/27 09:00:51;;;;;;;5.80;2.72;;;20.60;51.20;;;;;;4988337;28;20210;-53
2022/02/27 09:03:24;;;;;;;4.90;2.63;;;20.60;51.10;;;;;;4990252;28;20197;-50
2022/02/27 09:05:56;;;;;;;4.30;2.63;;;20.50;51.60;;;;;;4990070;28;20741;-53
2022/02/27 09:08:28;;;;;;;4.05;2.45;;;20.50;51.00;;;;;;4989285;28;20222;-54
2022/02/27 09:10:59;;;;;;;4.78;2.90;;;20.50;51.00;;;;;;4990266;28;20225;-48
2022/02/27 09:13:29;;;;;;;5.05;3.17;;;20.50;51.10;;;;;;4989585;28;20201;-54
2022/02/27 09:16:00;;;;;;;5.85;2.92;;;20.40;51.00;;;;;;5009268;23;20274;-56
2022/02/27 09:18:31;;;;;;;4.53;2.50;;;20.40;51.00;;;;;;5009346;28;20201;-58
2022/02/27 09:21:02;;;;;;;4.63;2.60;;;20.50;51.10;;;;;;5007207;28;20289;-59
2022/02/27 09:23:34;;;;;;;3.45;2.20;;;20.40;51.00;;;;;;5009305;28;20292;-58
2022/02/27 09:26:05;;;;;;;4.85;2.78;;;20.40;51.10;;;;;;5005296;28;20208;-57
2022/02/27 09:28:36;;;;;;;4.60;2.58;;;20.30;51.00;;;;;;5009033;28;20221;-57
2022/02/27 09:31:07;;;;;;;5.20;2.70;;;20.30;50.90;;;;;;5007030;28;20220;-58
2022/02/27 09:33:38;;;;;;;5.18;3.25;;;20.30;50.90;;;;;;5009480;28;20577;-55
2022/02/27 09:36:10;;;;;;;3.03;2.33;;;20.30;51.00;;;;;;5008643;28;20197;-57
2022/02/27 09:38:43;;;;;;;5.75;2.90;;;20.30;50.90;;;;;;5008740;28;20200;-58
2022/02/27 09:41:15;;;;;;;4.07;2.63;;;20.30;51.00;;;;;;5008844;28;20292;-55
2022/02/27 09:43:48;;;;;;;4.68;3.05;;;20.30;51.00;;;;;;5009036;28;20200;-52
2022/02/27 09:46:19;;;;;;;4.95;2.78;;;20.30;51.00;;;;;;5008583;28;20212;-52
2022/02/27 09:48:50;;;;;;;3.45;2.45;;;20.20;51.00;;;;;;5008622;28;20231;-54
2022/02/27 09:51:21;;;;;;;5.85;3.00;;;20.20;51.00;;;;;;4995752;28;20217;-58
2022/02/27 09:53:54;;;;;;;4.88;3.25;;;20.20;51.00;;;;;;4991912;28;20197;-57
2022/02/27 09:56:25;;;;;;;6.38;3.42;;;20.20;51.00;;;;;;4991006;28;20416;-58
2022/02/27 09:58:57;;;;;;;5.78;3.20;;;20.10;51.00;;;;;;4990870;28;20209;-54
2022/02/27 10:01:27;;;;;;;4.53;2.83;;;20.10;51.00;;;;;;4990711;28;20217;-50
2022/02/27 10:04:00;;;;;;;6.18;3.10;;;20.10;51.00;;;;;;4990905;28;20202;-51
2022/02/27 10:06:30;;;;;;;4.95;2.92;;;20.10;51.00;;;;;;4990704;28;20706;-57
2022/02/27 10:09:03;;;;;;;6.20;3.05;;;20.00;51.00;;;;;;4992940;28;20229;-52
2022/02/27 10:11:39;;;;;;;4.30;2.97;;;20.00;51.00;;;;;;4994854;28;20688;-57
2022/02/27 10:14:10;;;;;;;5.22;2.83;;;20.00;51.00;;;;;;4994611;28;20664;-53
2022/02/27 10:16:40;;;;;;;4.13;3.13;;;20.00;51.00;;;;;;4995062;28;20260;-53
2022/02/27 10:19:17;;;;;;;4.47;3.13;;;20.00;51.00;;;;;;4994789;28;20661;-54
2022/02/27 10:21:48;;;;;;;5.88;3.17;;;20.00;51.00;;;;;;4994164;28;20213;-52
2022/02/27 10:24:20;;;;;;;4.80;2.97;;;20.00;51.00;;;;;;4994633;28;20573;-53
2022/02/27 10:26:53;;;;;;;4.28;2.70;;;19.90;50.90;;;;;;4994519;28;20205;-52
2022/02/27 10:29:24;;;;;;;4.75;3.10;;;19.90;50.90;;;;;;4994461;28;20639;-56
2022/02/27 10:31:56;;;;;;;5.25;2.75;;;19.90;51.00;;;;;;4994391;28;20610;-53
2022/02/27 10:34:28;;;;;;;5.18;3.03;;;19.90;51.00;;;;;;4994366;28;20201;-55
2022/02/27 10:37:01;;;;;;;5.18;3.00;;;19.80;51.00;;;;;;4993819;28;20202;-54
2022/02/27 10:39:38;;;;;;;3.88;2.85;;;19.80;51.00;;;;;;4994497;28;20247;-58
2022/02/27 10:42:18;;;;;;;5.93;2.85;;;19.80;51.00;;;;;;4994421;28;20221;-57
2022/02/27 10:44:55;;;;;;;4.40;2.60;;;19.80;51.00;;;;;;4993947;28;20636;-54
2022/02/27 10:47:27;;;;;;;4.25;2.80;;;19.70;51.00;;;;;;4974570;28;20197;-57
2022/02/27 10:49:59;;;;;;;4.22;3.15;;;19.70;51.00;;;;;;4974649;28;20229;-53
2022/02/27 10:52:32;;;;;;;4.60;3.00;;;19.70;51.00;;;;;;4992905;28;20267;-53
2022/02/27 10:55:07;;;;;;;3.63;2.40;;;19.70;51.00;;;;;;4993714;28;20683;-56
2022/02/27 10:57:38;;;;;;;5.00;3.03;;;19.70;51.00;;;;;;4994085;28;20207;-56
2022/02/27 11:00:17;;;;;;;4.40;2.95;;;19.70;51.00;;;;;;4993777;28;20216;-48
2022/02/27 11:02:48;;;;;;;5.35;2.72;;;19.70;51.00;;;;;;4994192;28;20549;-51
2022/02/27 11:05:20;;;;;;;4.10;2.47;;;19.70;51.00;;;;;;4993680;28;20256;-57
2022/02/27 11:07:55;;;;;;;3.58;2.63;;;19.70;51.00;;;;;;4974303;28;20198;-51
2022/02/27 11:10:28;;;;;;;4.18;2.50;;;19.70;51.00;;;;;;4974077;28;20227;-55
2022/02/27 11:13:02;;;;;;;4.78;2.70;;;19.60;51.00;;;;;;4974263;28;20666;-54
2022/02/27 11:15:33;;;;;;;4.18;2.60;;;19.60;51.00;;;;;;4989748;23;20217;-61
2022/02/27 11:18:04;;;;;;;3.17;2.42;;;19.60;51.00;;;;;;4993275;28;20197;-59
2022/02/27 11:20:37;;;;;;;4.03;2.80;;;19.60;51.00;;;;;;4991719;28;20288;-56
2022/02/27 11:23:08;;;;;;;3.75;2.80;;;19.60;51.00;;;;;;4992954;28;20202;-59
2022/02/27 11:25:41;;;;;;;6.03;3.10;;;19.50;51.00;;;;;;4992250;28;20190;-59
2022/02/27 11:28:13;;;;;;;4.35;2.70;;;19.50;51.00;;;;;;4993459;28;20197;-57
2022/02/27 11:30:47;;;;;;;4.93;2.95;;;19.50;51.00;;;;;;4992444;28;20739;-59
2022/02/27 11:33:20;;;;;;;3.63;2.50;;;19.50;51.10;;;;;;4993416;28;20480;-59
2022/02/27 11:35:52;;;;;;;2.97;2.42;;;19.50;51.00;;;;;;4992831;28;20201;-59
2022/02/27 11:38:37;;;;;;;3.78;2.45;;;19.50;51.00;;;;;;4993441;28;20206;-59
2022/02/27 11:41:16;;;;;;;3.83;2.55;;;19.50;51.00;;;;;;4991179;28;20232;-59
2022/02/27 11:43:53;;;;;;;5.10;2.63;;;19.50;51.00;;;;;;4984782;28;20252;-59
2022/02/27 11:46:35;;;;;;;5.20;2.83;;;19.40;51.00;;;;;;4993042;28;20267;-59
2022/02/27 11:49:08;;;;;;;3.72;2.70;;;19.40;51.00;;;;;;4992960;28;20217;-57
2022/02/27 11:51:50;;;;;;;3.90;2.33;;;19.40;51.00;;;;;;4992929;28;20252;-60
2022/02/27 11:54:21;;;;;;;4.20;2.72;;;19.40;51.00;;;;;;4991309;28;20198;-59
2022/02/27 11:57:11;;;;;;;4.13;2.45;;;19.30;51.00;;;;;;4984648;28;20206;-59
2022/02/27 12:00:02;;;;;;;3.78;2.53;;;19.40;51.00;;;;;;4992808;28;20213;-59
2022/02/27 12:02:47;;;;;;;4.07;2.40;;;19.30;51.00;;;;;;4992331;28;20697;-60
2022/02/27 12:05:19;;;;;;;3.22;2.38;;;19.30;51.00;;;;;;4992858;28;20673;-59
2022/02/27 12:08:09;;;;;;;3.40;2.35;;;19.30;51.00;;;;;;4990533;28;20201;-59
2022/02/27 12:10:44;;;;;;;3.67;2.15;;;19.30;51.10;;;;;;4992320;28;20659;-59
2022/02/27 12:13:25;;;;;;;3.08;2.22;;;19.30;51.00;;;;;;4992349;28;20197;-58
2022/02/27 12:16:13;;;;;;;2.85;2.15;;;19.30;51.10;;;;;;5005083;23;20225;-57
2022/02/27 12:18:52;;;;;;;4.35;2.58;;;19.20;51.00;;;;;;4992480;28;20208;-59
2022/02/27 12:21:35;;;;;;;2.58;1.92;;;19.20;51.00;;;;;;4981778;28;20214;-54
2022/02/27 12:24:11;;;;;;;3.30;2.15;;;19.20;51.00;;;;;;4972381;28;20206;-56
2022/02/27 12:26:48;;;;;;;3.22;2.42;;;19.20;51.00;;;;;;4968849;28;20206;-55
2022/02/27 12:29:32;;;;;;;3.92;2.65;;;19.10;51.00;;;;;;4978952;28;20221;-57
2022/02/27 12:32:09;;;;;;;3.85;2.22;;;19.10;51.00;;;;;;4970781;28;20214;-56
2022/02/27 12:34:41;;;;;;;3.10;2.30;;;19.10;51.00;;;;;;4966912;28;20258;-57
2022/02/27 12:37:13;;;;;;;2.35;1.90;;;19.10;51.00;;;;;;4962319;28;20241;-58
2022/02/27 12:39:44;;;;;;;3.10;1.90;;;19.10;51.00;;;;;;4969160;28;20206;-58
2022/02/27 12:42:18;;;;;;;2.38;1.85;;;19.10;51.00;;;;;;4972282;28;20230;-57
2022/02/27 12:44:52;;;;;;;3.30;2.03;;;19.00;51.00;;;;;;4971242;28;20253;-58
2022/02/27 12:47:25;;;;;;;2.70;2.00;;;19.10;51.00;;;;;;4970907;28;20205;-56
2022/02/27 12:50:18;;;;;;;2.95;2.20;;;19.00;51.00;;;;;;4971200;28;20689;-54
2022/02/27 12:52:49;;;;;;;2.33;1.98;;;19.00;51.00;;;;;;4971837;28;20209;-56
2022/02/27 12:55:21;;;;;;;3.60;2.13;;;19.00;51.00;;;;;;4970500;28;20258;-57
2022/02/27 12:57:55;;;;;;;4.10;2.13;;;19.00;51.00;;;;;;4972201;28;20253;-56
2022/02/27 13:00:27;;;;;;;3.08;2.10;;;19.00;51.00;;;;;;4972288;28;20206;-53
2022/02/27 13:02:58;;;;;;;3.45;2.50;;;18.90;51.00;;;;;;4971845;28;20205;-58
2022/02/27 13:05:32;;;;;;;3.47;2.15;;;18.90;51.00;;;;;;4972104;28;20202;-58
2022/02/27 13:08:07;;;;;;;3.88;2.33;;;18.90;51.00;;;;;;4971377;28;20289;-55
2022/02/27 13:10:38;;;;;;;3.08;2.20;;;18.90;51.00;;;;;;4971212;28;20238;-56
2022/02/27 13:13:16;;;;;;;2.75;1.60;;;18.90;51.00;;;;;;4971782;28;20206;-51